sensor_id;sensor_type;location;lat;lon;timestamp;pressure;altitude;pressure_sealevel;temperature;humidity
19748;BME280;10032;51.386;12.516;2023-02-23T00:01:57;99846.88;;;7.86;100.00
19748;BME280;10032;51.386;12.516;2023-02-23T00:04:25;99846.31;;;7.84;100.00
19748;BME280;10032;51.386;12.516;2023-02-23T00:06:51;99842.56;;;7.85;100.00
19748;BME280;10032;51.386;12.516;2023-02-23T00:09:17;99839.84;;;7.85;100.00
19748;BME280;10032;51.386;12.516;2023-02-23T00:11:53;99843.84;;;7.83;100.00
19748;BME280;10032;51.386;12.516;2023-02-23T00:14:20;99833.84;;;7.83;100.00
19748;BME280;10032;51.386;12.516;2023-02-23T00:16:48;99826.38;;;7.85;100.00
19748;BME280;10032;51.386;12.516;2023-02-23T00:19:14;99841.72;;;7.85;100.00
19748;BME280;10032;51.386;12.516;2023-02-23T00:21:40;99835.53;;;7.84;100.00
19748;BME280;10032;51.386;12.516;2023-02-23T00:24:08;99835.53;;;7.84;100.00
19748;BME280;10032;51.386;12.516;2023-02-23T00:26:36;99832.22;;;7.82;100.00
19748;BME280;10032;51.386;12.516;2023-02-23T00:29:07;99831.75;;;7.85;100.00
19748;BME280;10032;51.386;12.516;2023-02-23T00:31:33;99825.88;;;7.88;100.00
19748;BME280;10032;51.386;12.516;2023-02-23T00:34:01;99830.22;;;7.89;100.00
19748;BME280;10032;51.386;12.516;2023-02-23T00:36:32;99836.19;;;7.91;100.00
19748;BME280;10032;51.386;12.516;2023-02-23T00:39:00;99826.47;;;7.90;100.00
19748;BME280;10032;51.386;12.516;2023-02-23T00:41:27;99838.66;;;7.93;100.00
19748;BME280;10032;51.386;12.516;2023-02-23T00:43:53;99830.56;;;7.93;100.00
19748;BME280;10032;51.386;12.516;2023-02-23T00:46:21;99829.50;;;7.94;100.00
19748;BME280;10032;51.386;12.516;2023-02-23T00:48:49;99837.34;;;7.95;100.00
19748;BME280;10032;51.386;12.516;2023-02-23T00:51:15;99831.13;;;7.95;100.00
19748;BME280;10032;51.386;12.516;2023-02-23T00:53:41;99835.72;;;7.94;100.00
19748;BME280;10032;51.386;12.516;2023-02-23T00:56:08;99831.38;;;7.93;100.00
19748;BME280;10032;51.386;12.516;2023-02-23T00:58:34;99824.34;;;7.92;100.00
19748;BME280;10032;51.386;12.516;2023-02-23T01:01:00;99834.91;;;7.94;100.00
19748;BME280;10032;51.386;12.516;2023-02-23T01:03:26;99836.19;;;7.91;100.00
19748;BME280;10032;51.386;12.516;2023-02-23T01:05:52;99840.75;;;7.91;100.00
19748;BME280;10032;51.386;12.516;2023-02-23T01:08:20;99839.47;;;7.93;100.00
19748;BME280;10032;51.386;12.516;2023-02-23T01:10:49;99835.13;;;7.92;100.00
19748;BME280;10032;51.386;12.516;2023-02-23T01:13:20;99843.22;;;7.92;100.00
19748;BME280;10032;51.386;12.516;2023-02-23T01:15:47;99842.88;;;7.89;100.00
19748;BME280;10032;51.386;12.516;2023-02-23T01:18:17;99847.72;;;7.87;100.00
19748;BME280;10032;51.386;12.516;2023-02-23T01:20:44;99843.34;;;7.86;100.00
19748;BME280;10032;51.386;12.516;2023-02-23T01:23:13;99843.34;;;7.86;100.00
19748;BME280;10032;51.386;12.516;2023-02-23T01:25:41;99840.09;;;7.84;100.00
19748;BME280;10032;51.386;12.516;2023-02-23T01:28:11;99840.91;;;7.84;100.00
19748;BME280;10032;51.386;12.516;2023-02-23T01:30:37;99843.00;;;7.82;100.00
19748;BME280;10032;51.386;12.516;2023-02-23T01:33:04;99839.75;;;7.80;100.00
19748;BME280;10032;51.386;12.516;2023-02-23T01:35:30;99840.22;;;7.77;100.00
19748;BME280;10032;51.386;12.516;2023-02-23T01:37:57;99833.41;;;7.75;100.00
19748;BME280;10032;51.386;12.516;2023-02-23T01:40:24;99827.69;;;7.71;100.00
19748;BME280;10032;51.386;12.516;2023-02-23T01:42:55;99830.38;;;7.71;100.00
19748;BME280;10032;51.386;12.516;2023-02-23T01:45:34;99829.81;;;7.69;100.00
19748;BME280;10032;51.386;12.516;2023-02-23T01:48:23;99825.72;;;7.67;100.00
19748;BME280;10032;51.386;12.516;2023-02-23T01:50:57;99824.31;;;7.64;100.00
19748;BME280;10032;51.386;12.516;2023-02-23T01:53:25;99819.72;;;7.65;100.00
19748;BME280;10032;51.386;12.516;2023-02-23T01:55:55;99819.16;;;7.63;100.00
19748;BME280;10032;51.386;12.516;2023-02-23T01:58:23;99814.00;;;7.61;100.00
19748;BME280;10032;51.386;12.516;2023-02-23T02:00:54;99802.66;;;7.59;100.00
19748;BME280;10032;51.386;12.516;2023-02-23T02:03:41;99803.13;;;7.56;100.00
19748;BME280;10032;51.386;12.516;2023-02-23T02:06:10;99798.78;;;7.55;100.00
19748;BME280;10032;51.386;12.516;2023-02-23T02:08:39;99803.84;;;7.52;100.00
19748;BME280;10032;51.386;12.516;2023-02-23T02:11:11;99795.41;;;7.48;100.00
19748;BME280;10032;51.386;12.516;2023-02-23T02:13:57;99790.03;;;7.48;100.00
19748;BME280;10032;51.386;12.516;2023-02-23T02:22:09;99782.81;;;7.26;100.00
19748;BME280;10032;51.386;12.516;2023-02-23T02:33:32;99788.47;;;7.13;100.00
19748;BME280;10032;51.386;12.516;2023-02-23T02:44:26;99775.22;;;7.11;100.00
19748;BME280;10032;51.386;12.516;2023-02-23T02:47:06;99771.69;;;7.11;100.00
19748;BME280;10032;51.386;12.516;2023-02-23T02:53:04;99767.38;;;7.10;100.00
19748;BME280;10032;51.386;12.516;2023-02-23T02:55:32;99772.88;;;7.03;100.00
19748;BME280;10032;51.386;12.516;2023-02-23T02:58:01;99766.44;;;7.04;100.00
19748;BME280;10032;51.386;12.516;2023-02-23T03:00:50;99765.97;;;7.07;100.00
19748;BME280;10032;51.386;12.516;2023-02-23T03:03:38;99761.66;;;7.06;100.00
19748;BME280;10032;51.386;12.516;2023-02-23T03:06:28;99760.13;;;7.10;100.00
19748;BME280;10032;51.386;12.516;2023-02-23T03:12:32;99764.56;;;7.05;100.00
19748;BME280;10032;51.386;12.516;2023-02-23T03:18:37;99758.94;;;7.06;100.00
19748;BME280;10032;51.386;12.516;2023-02-23T03:21:37;99762.81;;;7.10;100.00
19748;BME280;10032;51.386;12.516;2023-02-23T03:24:57;99767.72;;;7.13;100.00
19748;BME280;10032;51.386;12.516;2023-02-23T03:27:48;99768.88;;;7.17;100.00
19748;BME280;10032;51.386;12.516;2023-02-23T03:30:50;99772.97;;;7.20;100.00
19748;BME280;10032;51.386;12.516;2023-02-23T03:33:52;99778.38;;;7.20;100.00
19748;BME280;10032;51.386;12.516;2023-02-23T03:36:44;99778.13;;;7.21;100.00
19748;BME280;10032;51.386;12.516;2023-02-23T03:39:36;99771.34;;;7.19;100.00
19748;BME280;10032;51.386;12.516;2023-02-23T03:42:26;99779.78;;;7.22;100.00
19748;BME280;10032;51.386;12.516;2023-02-23T03:45:14;99776.59;;;7.25;100.00
19748;BME280;10032;51.386;12.516;2023-02-23T03:48:02;99776.13;;;7.28;100.00
19748;BME280;10032;51.386;12.516;2023-02-23T03:50:57;99774.50;;;7.27;100.00
19748;BME280;10032;51.386;12.516;2023-02-23T03:53:52;99778.81;;;7.28;100.00
19748;BME280;10032;51.386;12.516;2023-02-23T03:56:38;99783.47;;;7.33;100.00
19748;BME280;10032;51.386;12.516;2023-02-23T03:59:28;99780.31;;;7.36;100.00
19748;BME280;10032;51.386;12.516;2023-02-23T04:02:16;99788.66;;;7.34;100.00
19748;BME280;10032;51.386;12.516;2023-02-23T04:05:04;99795.19;;;7.38;100.00
19748;BME280;10032;51.386;12.516;2023-02-23T04:07:50;99795.78;;;7.40;100.00
19748;BME280;10032;51.386;12.516;2023-02-23T04:10:43;99794.97;;;7.40;100.00
19748;BME280;10032;51.386;12.516;2023-02-23T04:13:29;99793.69;;;7.42;100.00
19748;BME280;10032;51.386;12.516;2023-02-23T04:16:06;99801.03;;;7.47;100.00
19748;BME280;10032;51.386;12.516;2023-02-23T04:18:34;99797.63;;;7.51;100.00
19748;BME280;10032;51.386;12.516;2023-02-23T04:21:00;99794.91;;;7.51;100.00
19748;BME280;10032;51.386;12.516;2023-02-23T04:23:26;99791.53;;;7.56;100.00
19748;BME280;10032;51.386;12.516;2023-02-23T04:25:53;99785.91;;;7.57;100.00
19748;BME280;10032;51.386;12.516;2023-02-23T04:28:20;99781.66;;;7.61;100.00
19748;BME280;10032;51.386;12.516;2023-02-23T04:30:46;99778.25;;;7.66;100.00
19748;BME280;10032;51.386;12.516;2023-02-23T04:33:11;99786.09;;;7.67;100.00
19748;BME280;10032;51.386;12.516;2023-02-23T04:35:38;99780.47;;;7.69;100.00
19748;BME280;10032;51.386;12.516;2023-02-23T04:38:03;99782.09;;;7.70;100.00
19748;BME280;10032;51.386;12.516;2023-02-23T04:40:29;99789.25;;;7.76;100.00
19748;BME280;10032;51.386;12.516;2023-02-23T04:42:54;99789.59;;;7.79;100.00
19748;BME280;10032;51.386;12.516;2023-02-23T04:45:21;99788.75;;;7.79;100.00
19748;BME280;10032;51.386;12.516;2023-02-23T04:47:47;99793.91;;;7.80;100.00
19748;BME280;10032;51.386;12.516;2023-02-23T04:50:13;99790.72;;;7.83;100.00
19748;BME280;10032;51.386;12.516;2023-02-23T04:52:39;99786.72;;;7.86;100.00
19748;BME280;10032;51.386;12.516;2023-02-23T04:55:05;99795.63;;;7.86;100.00
19748;BME280;10032;51.386;12.516;2023-02-23T04:57:32;99787.09;;;7.89;100.00
19748;BME280;10032;51.386;12.516;2023-02-23T04:59:58;99786.00;;;7.90;100.00
19748;BME280;10032;51.386;12.516;2023-02-23T05:02:24;99786.00;;;7.90;100.00
19748;BME280;10032;51.386;12.516;2023-02-23T05:04:50;99791.97;;;7.92;100.00
19748;BME280;10032;51.386;12.516;2023-02-23T05:07:15;99788.81;;;7.95;100.00
19748;BME280;10032;51.386;12.516;2023-02-23T05:09:41;99784.22;;;7.96;100.00
19748;BME280;10032;51.386;12.516;2023-02-23T05:12:06;99789.38;;;7.97;100.00
19748;BME280;10032;51.386;12.516;2023-02-23T05:14:32;99785.38;;;8.00;100.00
19748;BME280;10032;51.386;12.516;2023-02-23T05:16:57;99786.44;;;7.99;100.00
19748;BME280;10032;51.386;12.516;2023-02-23T05:19:22;99789.13;;;7.99;100.00
19748;BME280;10032;51.386;12.516;2023-02-23T05:21:48;99782.44;;;8.01;100.00
19748;BME280;10032;51.386;12.516;2023-02-23T05:24:15;99782.44;;;8.01;100.00
19748;BME280;10032;51.386;12.516;2023-02-23T05:26:41;99778.69;;;8.02;100.00
19748;BME280;10032;51.386;12.516;2023-02-23T05:29:07;99778.44;;;8.04;100.00
19748;BME280;10032;51.386;12.516;2023-02-23T05:31:32;99774.13;;;8.03;100.00
19748;BME280;10032;51.386;12.516;2023-02-23T05:33:58;99774.34;;;8.01;100.00
19748;BME280;10032;51.386;12.516;2023-02-23T05:36:23;99775.16;;;8.02;100.00
19748;BME280;10032;51.386;12.516;2023-02-23T05:38:48;99766.81;;;8.03;100.00
19748;BME280;10032;51.386;12.516;2023-02-23T05:41:17;99772.81;;;8.05;100.00
19748;BME280;10032;51.386;12.516;2023-02-23T05:43:42;99768.22;;;8.06;100.00
19748;BME280;10032;51.386;12.516;2023-02-23T05:46:15;99779.84;;;8.06;100.00
19748;BME280;10032;51.386;12.516;2023-02-23T05:48:40;99774.44;;;8.06;100.00
19748;BME280;10032;51.386;12.516;2023-02-23T05:51:08;99777.06;;;8.01;100.00
19748;BME280;10032;51.386;12.516;2023-02-23T05:53:35;99773.53;;;8.01;100.00
19748;BME280;10032;51.386;12.516;2023-02-23T05:56:02;99776.44;;;7.99;100.00
19748;BME280;10032;51.386;12.516;2023-02-23T05:58:28;99775.66;;;7.99;100.00
19748;BME280;10032;51.386;12.516;2023-02-23T06:00:54;99781.63;;;8.01;100.00
19748;BME280;10032;51.386;12.516;2023-02-23T06:03:20;99781.84;;;7.99;100.00
19748;BME280;10032;51.386;12.516;2023-02-23T06:05:54;99775.88;;;7.97;100.00
19748;BME280;10032;51.386;12.516;2023-02-23T06:08:20;99781.84;;;7.99;100.00
19748;BME280;10032;51.386;12.516;2023-02-23T06:10:46;99781.03;;;7.99;100.00
19748;BME280;10032;51.386;12.516;2023-02-23T06:13:12;99778.59;;;7.97;100.00
19748;BME280;10032;51.386;12.516;2023-02-23T06:15:38;99793.13;;;7.96;100.00
19748;BME280;10032;51.386;12.516;2023-02-23T06:18:04;99787.66;;;7.91;100.00
19748;BME280;10032;51.386;12.516;2023-02-23T06:20:29;99792.22;;;7.91;100.00
19748;BME280;10032;51.386;12.516;2023-02-23T06:22:55;99798.09;;;7.88;100.00
19748;BME280;10032;51.386;12.516;2023-02-23T06:25:22;99799.41;;;7.85;100.00
19748;BME280;10032;51.386;12.516;2023-02-23T06:27:48;99800.81;;;7.88;100.00
19748;BME280;10032;51.386;12.516;2023-02-23T06:30:13;99797.78;;;7.84;100.00
19748;BME280;10032;51.386;12.516;2023-02-23T06:32:39;99802.09;;;7.85;100.00
19748;BME280;10032;51.386;12.516;2023-02-23T06:35:05;99803.50;;;7.88;100.00
19748;BME280;10032;51.386;12.516;2023-02-23T06:37:31;99804.41;;;7.93;100.00
19748;BME280;10032;51.386;12.516;2023-02-23T06:39:57;99805.31;;;7.99;100.00
19748;BME280;10032;51.386;12.516;2023-02-23T06:42:24;99801.88;;;8.03;100.00
19748;BME280;10032;51.386;12.516;2023-02-23T06:44:49;99798.97;;;8.05;100.00
19748;BME280;10032;51.386;12.516;2023-02-23T06:47:15;99809.84;;;8.10;100.00
19748;BME280;10032;51.386;12.516;2023-02-23T06:49:40;99805.28;;;8.10;100.00
19748;BME280;10032;51.386;12.516;2023-02-23T06:52:07;99803.72;;;8.14;100.00
19748;BME280;10032;51.386;12.516;2023-02-23T06:54:33;99814.50;;;8.14;100.00
19748;BME280;10032;51.386;12.516;2023-02-23T06:56:59;99816.13;;;8.15;100.00
19748;BME280;10032;51.386;12.516;2023-02-23T06:59:24;99815.56;;;8.13;100.00
19748;BME280;10032;51.386;12.516;2023-02-23T07:01:50;99821.91;;;8.19;100.00
19748;BME280;10032;51.386;12.516;2023-02-23T07:04:16;99820.22;;;8.18;100.00
19748;BME280;10032;51.386;12.516;2023-02-23T07:06:41;99817.53;;;8.18;100.00
19748;BME280;10032;51.386;12.516;2023-02-23T07:09:06;99818.97;;;8.20;100.00
19748;BME280;10032;51.386;12.516;2023-02-23T07:11:32;99827.16;;;8.25;100.00
19748;BME280;10032;51.386;12.516;2023-02-23T07:13:58;99825.59;;;8.29;100.00
19748;BME280;10032;51.386;12.516;2023-02-23T07:16:24;99831.09;;;8.34;100.00
19748;BME280;10032;51.386;12.516;2023-02-23T07:18:51;99821.69;;;8.37;100.00
19748;BME280;10032;51.386;12.516;2023-02-23T07:21:17;99828.50;;;8.39;100.00
19748;BME280;10032;51.386;12.516;2023-02-23T07:23:42;99834.53;;;8.46;100.00
19748;BME280;10032;51.386;12.516;2023-02-23T07:26:08;99828.66;;;8.49;100.00
19748;BME280;10032;51.386;12.516;2023-02-23T07:28:34;99833.09;;;8.55;100.00
19748;BME280;10032;51.386;12.516;2023-02-23T07:31:00;99832.09;;;8.61;100.00
19748;BME280;10032;51.386;12.516;2023-02-23T07:33:25;99835.50;;;8.68;100.00
19748;BME280;10032;51.386;12.516;2023-02-23T07:35:51;99838.19;;;8.68;100.00
19748;BME280;10032;51.386;12.516;2023-02-23T07:38:17;99840.47;;;8.76;100.00
19748;BME280;10032;51.386;12.516;2023-02-23T07:40:43;99846.78;;;8.82;100.00
19748;BME280;10032;51.386;12.516;2023-02-23T07:43:08;99844.72;;;8.89;100.00
19748;BME280;10032;51.386;12.516;2023-02-23T07:45:35;99849.38;;;8.93;100.00
19748;BME280;10032;51.386;12.516;2023-02-23T07:48:00;99855.09;;;8.97;100.00
19748;BME280;10032;51.386;12.516;2023-02-23T07:50:26;99852.47;;;9.02;100.00
19748;BME280;10032;51.386;12.516;2023-02-23T07:52:51;99855.03;;;9.08;100.00
19748;BME280;10032;51.386;12.516;2023-02-23T07:55:17;99854.03;;;9.14;100.00
19748;BME280;10032;51.386;12.516;2023-02-23T07:57:43;99850.09;;;9.22;100.00
19748;BME280;10032;51.386;12.516;2023-02-23T08:00:09;99849.38;;;9.26;100.00
19748;BME280;10032;51.386;12.516;2023-02-23T08:02:35;99863.53;;;9.33;100.00
19748;BME280;10032;51.386;12.516;2023-02-23T08:05:00;99853.34;;;9.40;100.00
19748;BME280;10032;51.386;12.516;2023-02-23T08:07:25;99850.72;;;9.45;100.00
19748;BME280;10032;51.386;12.516;2023-02-23T08:09:51;99849.69;;;9.51;100.00
19748;BME280;10032;51.386;12.516;2023-02-23T08:12:18;99859.50;;;9.57;100.00
19748;BME280;10032;51.386;12.516;2023-02-23T08:14:44;99849.59;;;9.63;100.00
19748;BME280;10032;51.386;12.516;2023-02-23T08:17:10;99849.97;;;9.71;100.00
19748;BME280;10032;51.386;12.516;2023-02-23T08:19:35;99846.19;;;9.72;100.00
19748;BME280;10032;51.386;12.516;2023-02-23T08:22:02;99849.56;;;9.79;100.00
19748;BME280;10032;51.386;12.516;2023-02-23T08:24:28;99854.00;;;9.90;100.00
19748;BME280;10032;51.386;12.516;2023-02-23T08:26:55;99853.31;;;10.00;100.00
19748;BME280;10032;51.386;12.516;2023-02-23T08:29:21;99857.25;;;10.09;100.00
19748;BME280;10032;51.386;12.516;2023-02-23T08:31:46;99856.22;;;10.15;100.00
19748;BME280;10032;51.386;12.516;2023-02-23T08:34:12;99859.28;;;10.23;100.00
19748;BME280;10032;51.386;12.516;2023-02-23T08:36:38;99859.09;;;10.30;100.00
19748;BME280;10032;51.386;12.516;2023-02-23T08:39:05;99851.84;;;10.35;100.00
19748;BME280;10032;51.386;12.516;2023-02-23T08:41:33;99861.63;;;10.41;100.00
19748;BME280;10032;51.386;12.516;2023-02-23T08:43:58;99851.94;;;10.45;100.00
19748;BME280;10032;51.386;12.516;2023-02-23T08:46:24;99854.19;;;10.53;100.00
19748;BME280;10032;51.386;12.516;2023-02-23T08:48:49;99852.63;;;10.62;100.00
19748;BME280;10032;51.386;12.516;2023-02-23T08:51:15;99856.53;;;10.71;100.00
19748;BME280;10032;51.386;12.516;2023-02-23T08:53:40;99856.63;;;10.81;100.00
19748;BME280;10032;51.386;12.516;2023-02-23T08:56:07;99853.75;;;10.93;100.00
19748;BME280;10032;51.386;12.516;2023-02-23T08:58:34;99850.81;;;11.04;100.00
19748;BME280;10032;51.386;12.516;2023-02-23T09:01:00;99851.16;;;11.13;100.00
19748;BME280;10032;51.386;12.516;2023-02-23T09:03:26;99853.16;;;11.22;100.00
19748;BME280;10032;51.386;12.516;2023-02-23T09:05:55;99849.63;;;11.27;100.00
19748;BME280;10032;51.386;12.516;2023-02-23T09:08:21;99850.53;;;11.37;100.00
19748;BME280;10032;51.386;12.516;2023-02-23T09:10:47;99857.09;;;11.46;100.00
19748;BME280;10032;51.386;12.516;2023-02-23T09:13:12;99849.25;;;11.55;100.00
19748;BME280;10032;51.386;12.516;2023-02-23T09:15:38;99848.03;;;11.72;100.00
19748;BME280;10032;51.386;12.516;2023-02-23T09:18:06;99850.28;;;11.85;100.00
19748;BME280;10032;51.386;12.516;2023-02-23T09:20:32;99853.56;;;11.92;100.00
19748;BME280;10032;51.386;12.516;2023-02-23T09:22:58;99858.44;;;11.95;100.00
19748;BME280;10032;51.386;12.516;2023-02-23T09:25:24;99864.19;;;11.99;100.00
19748;BME280;10032;51.386;12.516;2023-02-23T09:27:53;99862.56;;;12.08;100.00
19748;BME280;10032;51.386;12.516;2023-02-23T09:30:20;99857.97;;;12.08;100.00
19748;BME280;10032;51.386;12.516;2023-02-23T09:32:47;99862.31;;;12.14;100.00
19748;BME280;10032;51.386;12.516;2023-02-23T09:35:14;99860.13;;;12.16;100.00
19748;BME280;10032;51.386;12.516;2023-02-23T09:37:52;99869.97;;;12.22;100.00
19748;BME280;10032;51.386;12.516;2023-02-23T09:40:24;99858.84;;;12.34;100.00
19748;BME280;10032;51.386;12.516;2023-02-23T09:43:14;99849.09;;;12.43;100.00
19748;BME280;10032;51.386;12.516;2023-02-23T09:46:07;99862.97;;;12.56;100.00
19748;BME280;10032;51.386;12.516;2023-02-23T09:48:36;99863.53;;;12.68;100.00
19748;BME280;10032;51.386;12.516;2023-02-23T09:51:05;99862.16;;;12.71;100.00
19748;BME280;10032;51.386;12.516;2023-02-23T09:56:04;99872.25;;;12.80;100.00
19748;BME280;10032;51.386;12.516;2023-02-23T09:58:33;99868.97;;;12.93;100.00
19748;BME280;10032;51.386;12.516;2023-02-23T10:01:04;99866.78;;;12.95;100.00
19748;BME280;10032;51.386;12.516;2023-02-23T10:03:38;99863.59;;;13.08;100.00
19748;BME280;10032;51.386;12.516;2023-02-23T10:06:08;99864.94;;;13.11;100.00
19748;BME280;10032;51.386;12.516;2023-02-23T10:08:43;99870.66;;;13.04;100.00
19748;BME280;10032;51.386;12.516;2023-02-23T10:11:23;99875.81;;;13.06;100.00
19748;BME280;10032;51.386;12.516;2023-02-23T10:14:00;99880.16;;;13.12;100.00
19748;BME280;10032;51.386;12.516;2023-02-23T10:16:32;99879.91;;;13.18;100.00
19748;BME280;10032;51.386;12.516;2023-02-23T10:19:11;99886.69;;;13.26;100.00
19748;BME280;10032;51.386;12.516;2023-02-23T10:21:40;99880.69;;;13.34;100.00
19748;BME280;10032;51.386;12.516;2023-02-23T10:24:15;99888.03;;;13.43;100.00
19748;BME280;10032;51.386;12.516;2023-02-23T10:26:50;99882.56;;;13.53;100.00
19748;BME280;10032;51.386;12.516;2023-02-23T10:29:39;99879.56;;;13.60;100.00
19748;BME280;10032;51.386;12.516;2023-02-23T10:32:17;99875.47;;;13.67;100.00
19748;BME280;10032;51.386;12.516;2023-02-23T10:34:45;99876.53;;;13.71;100.00
19748;BME280;10032;51.386;12.516;2023-02-23T10:37:15;99882.75;;;13.82;100.00
19748;BME280;10032;51.386;12.516;2023-02-23T10:39:41;99887.41;;;13.86;100.00
19748;BME280;10032;51.386;12.516;2023-02-23T10:42:14;99883.78;;;14.01;100.00
19748;BME280;10032;51.386;12.516;2023-02-23T10:44:45;99886.75;;;14.14;100.00
19748;BME280;10032;51.386;12.516;2023-02-23T10:47:14;99885.38;;;14.22;100.00
19748;BME280;10032;51.386;12.516;2023-02-23T10:49:52;99884.00;;;14.24;100.00
19748;BME280;10032;51.386;12.516;2023-02-23T10:52:21;99884.00;;;14.24;100.00
19748;BME280;10032;51.386;12.516;2023-02-23T10:54:50;99882.88;;;14.30;100.00
19748;BME280;10032;51.386;12.516;2023-02-23T10:57:25;99876.34;;;14.26;100.00
19748;BME280;10032;51.386;12.516;2023-02-23T11:02:39;99875.59;;;14.11;100.00
19748;BME280;10032;51.386;12.516;2023-02-23T11:05:06;99878.56;;;14.14;100.00
19748;BME280;10032;51.386;12.516;2023-02-23T11:07:32;99870.91;;;14.26;100.00
19748;BME280;10032;51.386;12.516;2023-02-23T11:10:22;99869.78;;;14.32;100.00
19748;BME280;10032;51.386;12.516;2023-02-23T11:12:44;99873.06;;;14.34;100.00
19748;BME280;10032;51.386;12.516;2023-02-23T11:15:31;99867.06;;;14.27;100.00
19748;BME280;10032;51.386;12.516;2023-02-23T11:18:04;99863.78;;;14.35;100.00
19748;BME280;10032;51.386;12.516;2023-02-23T11:23:10;99857.69;;;14.48;100.00
19748;BME280;10032;51.386;12.516;2023-02-23T11:25:42;99854.66;;;14.55;100.00
19748;BME280;10032;51.386;12.516;2023-02-23T11:28:20;99855.13;;;14.67;100.00
19748;BME280;10032;51.386;12.516;2023-02-23T11:30:48;99853.72;;;14.69;100.00
19748;BME280;10032;51.386;12.516;2023-02-23T11:33:20;99848.84;;;14.66;100.00
19748;BME280;10032;51.386;12.516;2023-02-23T11:35:57;99849.94;;;14.70;100.00
19748;BME280;10032;51.386;12.516;2023-02-23T11:38:25;99850.25;;;14.64;100.00
19748;BME280;10032;51.386;12.516;2023-02-23T11:41:04;99842.00;;;14.74;100.00
19748;BME280;10032;51.386;12.516;2023-02-23T11:43:31;99846.53;;;14.83;100.00
19748;BME280;10032;51.386;12.516;2023-02-23T11:45:59;99841.38;;;14.82;100.00
19748;BME280;10032;51.386;12.516;2023-02-23T11:48:31;99849.91;;;14.75;100.00
19748;BME280;10032;51.386;12.516;2023-02-23T11:50:59;99834.38;;;14.71;100.00
19748;BME280;10032;51.386;12.516;2023-02-23T11:53:34;99840.06;;;14.74;100.00
19748;BME280;10032;51.386;12.516;2023-02-23T11:56:02;99840.66;;;14.71;100.00
19748;BME280;10032;51.386;12.516;2023-02-23T11:58:45;99836.28;;;14.70;100.00
19748;BME280;10032;51.386;12.516;2023-02-23T12:01:15;99828.31;;;14.79;100.00
19748;BME280;10032;51.386;12.516;2023-02-23T12:03:51;99834.53;;;14.84;100.00
19748;BME280;10032;51.386;12.516;2023-02-23T12:08:58;99836.06;;;14.95;100.00
19748;BME280;10032;51.386;12.516;2023-02-23T12:11:28;99828.94;;;14.99;100.00
19748;BME280;10032;51.386;12.516;2023-02-23T12:14:06;99838.44;;;15.07;100.00
19748;BME280;10032;51.386;12.516;2023-02-23T12:16:44;99825.06;;;15.05;100.00
19748;BME280;10032;51.386;12.516;2023-02-23T12:19:28;99829.47;;;15.01;100.00
19748;BME280;10032;51.386;12.516;2023-02-23T12:22:22;99827.75;;;15.10;100.00
19748;BME280;10032;51.386;12.516;2023-02-23T12:25:10;99826.31;;;15.18;100.00
19748;BME280;10032;51.386;12.516;2023-02-23T12:27:43;99828.00;;;15.14;100.00
19748;BME280;10032;51.386;12.516;2023-02-23T12:35:16;99829.00;;;14.94;100.00
19748;BME280;10032;51.386;12.516;2023-02-23T12:37:47;99828.19;;;14.94;100.00
19748;BME280;10032;51.386;12.516;2023-02-23T12:40:18;99825.16;;;14.95;100.00
19748;BME280;10032;51.386;12.516;2023-02-23T12:42:58;99822.44;;;14.95;100.00
19748;BME280;10032;51.386;12.516;2023-02-23T12:45:34;99820.25;;;14.97;100.00
19748;BME280;10032;51.386;12.516;2023-02-23T12:48:43;99814.47;;;14.99;100.00
19748;BME280;10032;51.386;12.516;2023-02-23T12:51:32;99818.63;;;14.96;100.00
19748;BME280;10032;51.386;12.516;2023-02-23T12:54:00;99817.03;;;14.90;100.00
19748;BME280;10032;51.386;12.516;2023-02-23T13:12:05;99808.88;;;14.85;100.00
19748;BME280;10032;51.386;12.516;2023-02-23T13:17:37;99808.50;;;14.97;100.00
19748;BME280;10032;51.386;12.516;2023-02-23T13:27:59;99806.22;;;15.09;100.00
19748;BME280;10032;51.386;12.516;2023-02-23T13:30:28;99798.84;;;15.09;100.00
19748;BME280;10032;51.386;12.516;2023-02-23T13:32:57;99803.25;;;15.05;100.00
19748;BME280;10032;51.386;12.516;2023-02-23T13:35:24;99809.28;;;15.02;100.00
19748;BME280;10032;51.386;12.516;2023-02-23T13:40:50;99800.59;;;14.95;100.00
19748;BME280;10032;51.386;12.516;2023-02-23T13:43:36;99802.19;;;15.01;100.00
19748;BME280;10032;51.386;12.516;2023-02-23T13:49:08;99801.25;;;14.87;100.00
19748;BME280;10032;51.386;12.516;2023-02-23T13:51:50;99794.25;;;14.76;100.00
19748;BME280;10032;51.386;12.516;2023-02-23T13:59:19;99794.38;;;14.61;100.00
19748;BME280;10032;51.386;12.516;2023-02-23T14:01:48;99796.22;;;14.66;100.00
19748;BME280;10032;51.386;12.516;2023-02-23T14:06:54;99796.16;;;14.76;100.00
19748;BME280;10032;51.386;12.516;2023-02-23T14:09:37;99794.25;;;14.76;100.00
19748;BME280;10032;51.386;12.516;2023-02-23T14:17:58;99790.72;;;14.71;100.00
19748;BME280;10032;51.386;12.516;2023-02-23T14:23:25;99788.88;;;14.66;100.00
19748;BME280;10032;51.386;12.516;2023-02-23T14:26:09;99789.09;;;14.70;100.00
19748;BME280;10032;51.386;12.516;2023-02-23T14:28:40;99781.94;;;14.79;100.00
19748;BME280;10032;51.386;12.516;2023-02-23T14:41:27;99779.53;;;14.72;100.00
19748;BME280;10032;51.386;12.516;2023-02-23T14:43:58;99779.25;;;14.74;100.00
19748;BME280;10032;51.386;12.516;2023-02-23T14:46:25;99783.88;;;14.73;100.00
19748;BME280;10032;51.386;12.516;2023-02-23T14:48:59;99785.19;;;14.81;100.00
19748;BME280;10032;51.386;12.516;2023-02-23T14:51:43;99783.84;;;14.78;100.00
19748;BME280;10032;51.386;12.516;2023-02-23T14:56:53;99781.59;;;14.85;100.00